sensor_id;sensor_type;location;lat;lon;timestamp;temperature;humidity
46319;DHT22;32042;50.916;2.926;2023-03-13T00:02:01;11.40;99.90
46319;DHT22;32042;50.916;2.926;2023-03-13T00:04:26;11.40;99.90
46319;DHT22;32042;50.916;2.926;2023-03-13T00:06:52;11.50;99.90
46319;DHT22;32042;50.916;2.926;2023-03-13T00:09:18;11.50;99.90
46319;DHT22;32042;50.916;2.926;2023-03-13T00:11:44;11.50;99.90
46319;DHT22;32042;50.916;2.926;2023-03-13T00:14:10;11.50;99.90
46319;DHT22;32042;50.916;2.926;2023-03-13T00:16:36;11.50;99.90
46319;DHT22;32042;50.916;2.926;2023-03-13T00:19:04;11.60;99.90
46319;DHT22;32042;50.916;2.926;2023-03-13T00:21:30;11.60;99.90
46319;DHT22;32042;50.916;2.926;2023-03-13T00:23:58;11.70;99.90
46319;DHT22;32042;50.916;2.926;2023-03-13T00:26:26;11.60;99.90
46319;DHT22;32042;50.916;2.926;2023-03-13T00:28:52;11.70;99.90
46319;DHT22;32042;50.916;2.926;2023-03-13T00:31:20;11.70;99.90
46319;DHT22;32042;50.916;2.926;2023-03-13T00:33:47;11.70;99.90
46319;DHT22;32042;50.916;2.926;2023-03-13T00:36:19;11.70;99.90
46319;DHT22;32042;50.916;2.926;2023-03-13T00:38:45;11.70;99.90
46319;DHT22;32042;50.916;2.926;2023-03-13T00:41:15;11.70;99.90
46319;DHT22;32042;50.916;2.926;2023-03-13T00:43:41;11.80;99.90
46319;DHT22;32042;50.916;2.926;2023-03-13T00:46:08;11.80;99.90
46319;DHT22;32042;50.916;2.926;2023-03-13T00:48:34;11.80;99.90
46319;DHT22;32042;50.916;2.926;2023-03-13T00:51:01;11.90;99.90
46319;DHT22;32042;50.916;2.926;2023-03-13T00:53:27;11.80;99.90
46319;DHT22;32042;50.916;2.926;2023-03-13T00:58:29;11.90;99.90
46319;DHT22;32042;50.916;2.926;2023-03-13T01:00:55;11.90;99.90
46319;DHT22;32042;50.916;2.926;2023-03-13T01:03:22;11.90;99.90
46319;DHT22;32042;50.916;2.926;2023-03-13T01:05:59;12.00;99.90
46319;DHT22;32042;50.916;2.926;2023-03-13T01:08:26;11.90;99.90
46319;DHT22;32042;50.916;2.926;2023-03-13T01:11:07;12.00;99.90
46319;DHT22;32042;50.916;2.926;2023-03-13T01:13:34;12.00;99.90
46319;DHT22;32042;50.916;2.926;2023-03-13T01:16:11;12.00;99.90
46319;DHT22;32042;50.916;2.926;2023-03-13T01:18:40;12.00;99.90
46319;DHT22;32042;50.916;2.926;2023-03-13T01:21:06;12.00;99.90
46319;DHT22;32042;50.916;2.926;2023-03-13T01:23:32;12.00;99.90
46319;DHT22;32042;50.916;2.926;2023-03-13T01:25:57;12.00;99.90
46319;DHT22;32042;50.916;2.926;2023-03-13T01:28:24;12.00;99.90
46319;DHT22;32042;50.916;2.926;2023-03-13T01:30:51;12.00;99.90
46319;DHT22;32042;50.916;2.926;2023-03-13T01:33:16;12.00;99.90
46319;DHT22;32042;50.916;2.926;2023-03-13T01:35:42;12.00;99.90
46319;DHT22;32042;50.916;2.926;2023-03-13T01:38:08;12.00;99.90
46319;DHT22;32042;50.916;2.926;2023-03-13T01:40:44;12.10;99.90
46319;DHT22;32042;50.916;2.926;2023-03-13T01:43:21;12.10;99.90
46319;DHT22;32042;50.916;2.926;2023-03-13T01:48:24;12.10;99.90
46319;DHT22;32042;50.916;2.926;2023-03-13T01:50:53;12.10;99.90
46319;DHT22;32042;50.916;2.926;2023-03-13T01:53:19;12.20;99.90
46319;DHT22;32042;50.916;2.926;2023-03-13T01:55:45;12.20;99.90
46319;DHT22;32042;50.916;2.926;2023-03-13T01:58:11;12.20;99.90
46319;DHT22;32042;50.916;2.926;2023-03-13T02:00:38;12.20;99.90
46319;DHT22;32042;50.916;2.926;2023-03-13T02:03:11;12.30;99.90
46319;DHT22;32042;50.916;2.926;2023-03-13T02:05:38;12.30;99.90
46319;DHT22;32042;50.916;2.926;2023-03-13T02:10:47;12.40;99.90
46319;DHT22;32042;50.916;2.926;2023-03-13T02:13:15;12.40;99.90
46319;DHT22;32042;50.916;2.926;2023-03-13T02:15:42;12.40;99.90
46319;DHT22;32042;50.916;2.926;2023-03-13T02:18:07;12.40;99.90
46319;DHT22;32042;50.916;2.926;2023-03-13T02:20:33;12.40;99.90
46319;DHT22;32042;50.916;2.926;2023-03-13T02:23:21;12.40;99.90
46319;DHT22;32042;50.916;2.926;2023-03-13T02:25:52;12.40;99.90
46319;DHT22;32042;50.916;2.926;2023-03-13T02:28:29;12.50;99.90
46319;DHT22;32042;50.916;2.926;2023-03-13T02:30:59;12.50;99.90
46319;DHT22;32042;50.916;2.926;2023-03-13T02:33:29;12.50;99.90
46319;DHT22;32042;50.916;2.926;2023-03-13T02:35:57;12.50;99.90
46319;DHT22;32042;50.916;2.926;2023-03-13T02:38:26;12.60;99.90
46319;DHT22;32042;50.916;2.926;2023-03-13T02:40:55;12.60;99.90
46319;DHT22;32042;50.916;2.926;2023-03-13T02:43:30;12.60;99.90
46319;DHT22;32042;50.916;2.926;2023-03-13T02:46:09;12.60;99.90
46319;DHT22;32042;50.916;2.926;2023-03-13T02:48:39;12.60;99.90
46319;DHT22;32042;50.916;2.926;2023-03-13T02:51:37;12.70;99.90
46319;DHT22;32042;50.916;2.926;2023-03-13T02:54:09;12.70;99.90
46319;DHT22;32042;50.916;2.926;2023-03-13T02:56:37;12.70;99.90
46319;DHT22;32042;50.916;2.926;2023-03-13T02:59:03;12.80;99.90
46319;DHT22;32042;50.916;2.926;2023-03-13T03:01:29;12.80;99.90
46319;DHT22;32042;50.916;2.926;2023-03-13T03:03:55;12.80;99.90
46319;DHT22;32042;50.916;2.926;2023-03-13T03:06:20;12.80;99.90
46319;DHT22;32042;50.916;2.926;2023-03-13T03:08:46;12.80;99.90
46319;DHT22;32042;50.916;2.926;2023-03-13T03:11:12;12.80;99.90
46319;DHT22;32042;50.916;2.926;2023-03-13T03:13:38;12.80;99.90
46319;DHT22;32042;50.916;2.926;2023-03-13T03:16:08;12.80;99.90
46319;DHT22;32042;50.916;2.926;2023-03-13T03:18:35;12.80;99.90
46319;DHT22;32042;50.916;2.926;2023-03-13T03:21:02;12.80;99.90
46319;DHT22;32042;50.916;2.926;2023-03-13T03:23:31;12.80;99.90
46319;DHT22;32042;50.916;2.926;2023-03-13T03:25:58;12.90;99.90
46319;DHT22;32042;50.916;2.926;2023-03-13T03:28:23;12.90;99.90
46319;DHT22;32042;50.916;2.926;2023-03-13T03:30:49;12.90;99.90
46319;DHT22;32042;50.916;2.926;2023-03-13T03:33:15;12.90;99.90
46319;DHT22;32042;50.916;2.926;2023-03-13T03:35:41;12.90;99.90
46319;DHT22;32042;50.916;2.926;2023-03-13T03:38:06;12.90;99.90
46319;DHT22;32042;50.916;2.926;2023-03-13T03:40:32;12.90;99.90
46319;DHT22;32042;50.916;2.926;2023-03-13T03:42:58;12.90;99.90
46319;DHT22;32042;50.916;2.926;2023-03-13T03:45:23;13.00;99.90
46319;DHT22;32042;50.916;2.926;2023-03-13T03:47:49;13.00;99.90
46319;DHT22;32042;50.916;2.926;2023-03-13T03:50:15;13.00;99.90
46319;DHT22;32042;50.916;2.926;2023-03-13T03:52:40;13.00;99.90
46319;DHT22;32042;50.916;2.926;2023-03-13T03:55:06;13.00;99.90
46319;DHT22;32042;50.916;2.926;2023-03-13T03:57:32;13.00;99.90
46319;DHT22;32042;50.916;2.926;2023-03-13T03:59:58;13.00;99.90
46319;DHT22;32042;50.916;2.926;2023-03-13T04:02:23;13.00;99.90
46319;DHT22;32042;50.916;2.926;2023-03-13T04:04:49;13.00;99.90
46319;DHT22;32042;50.916;2.926;2023-03-13T04:07:14;13.00;99.90
46319;DHT22;32042;50.916;2.926;2023-03-13T04:09:40;13.00;99.90
46319;DHT22;32042;50.916;2.926;2023-03-13T04:12:06;13.00;99.90
46319;DHT22;32042;50.916;2.926;2023-03-13T04:14:32;13.00;99.90
46319;DHT22;32042;50.916;2.926;2023-03-13T04:16:57;13.10;99.90
46319;DHT22;32042;50.916;2.926;2023-03-13T04:19:23;13.10;99.90
46319;DHT22;32042;50.916;2.926;2023-03-13T04:21:49;13.20;99.90
46319;DHT22;32042;50.916;2.926;2023-03-13T04:24:14;13.30;99.90
46319;DHT22;32042;50.916;2.926;2023-03-13T04:26:40;13.30;99.90
46319;DHT22;32042;50.916;2.926;2023-03-13T04:29:06;13.30;99.90
46319;DHT22;32042;50.916;2.926;2023-03-13T04:31:32;13.30;99.90
46319;DHT22;32042;50.916;2.926;2023-03-13T04:33:58;13.20;99.90
46319;DHT22;32042;50.916;2.926;2023-03-13T04:36:23;13.30;99.90
46319;DHT22;32042;50.916;2.926;2023-03-13T04:38:49;13.30;99.90
46319;DHT22;32042;50.916;2.926;2023-03-13T04:41:15;13.20;99.90
46319;DHT22;32042;50.916;2.926;2023-03-13T04:43:40;13.20;99.90
46319;DHT22;32042;50.916;2.926;2023-03-13T04:46:06;13.20;99.90
46319;DHT22;32042;50.916;2.926;2023-03-13T04:48:32;13.20;99.90
46319;DHT22;32042;50.916;2.926;2023-03-13T04:50:58;13.20;99.90
46319;DHT22;32042;50.916;2.926;2023-03-13T04:53:23;13.20;99.90
46319;DHT22;32042;50.916;2.926;2023-03-13T04:55:50;13.20;99.90
46319;DHT22;32042;50.916;2.926;2023-03-13T04:58:15;13.20;99.90
46319;DHT22;32042;50.916;2.926;2023-03-13T05:00:41;13.20;99.90
46319;DHT22;32042;50.916;2.926;2023-03-13T05:03:07;13.20;99.90
46319;DHT22;32042;50.916;2.926;2023-03-13T05:05:34;13.20;99.90
46319;DHT22;32042;50.916;2.926;2023-03-13T05:08:00;13.20;99.90
46319;DHT22;32042;50.916;2.926;2023-03-13T05:10:26;13.20;99.90
46319;DHT22;32042;50.916;2.926;2023-03-13T05:12:52;13.20;99.90
46319;DHT22;32042;50.916;2.926;2023-03-13T05:15:17;13.10;99.90
46319;DHT22;32042;50.916;2.926;2023-03-13T05:17:43;13.10;99.90
46319;DHT22;32042;50.916;2.926;2023-03-13T05:20:09;13.10;99.90
46319;DHT22;32042;50.916;2.926;2023-03-13T05:22:36;13.10;99.90
46319;DHT22;32042;50.916;2.926;2023-03-13T05:25:03;13.10;99.90
46319;DHT22;32042;50.916;2.926;2023-03-13T05:27:29;13.20;99.90
46319;DHT22;32042;50.916;2.926;2023-03-13T05:29:55;13.20;99.90
46319;DHT22;32042;50.916;2.926;2023-03-13T05:32:21;13.20;99.90
46319;DHT22;32042;50.916;2.926;2023-03-13T05:34:46;13.20;99.90
46319;DHT22;32042;50.916;2.926;2023-03-13T05:37:12;13.20;99.90
46319;DHT22;32042;50.916;2.926;2023-03-13T05:39:38;13.20;99.90
46319;DHT22;32042;50.916;2.926;2023-03-13T05:42:03;13.20;99.90
46319;DHT22;32042;50.916;2.926;2023-03-13T05:44:29;13.20;99.90
46319;DHT22;32042;50.916;2.926;2023-03-13T05:46:55;13.30;99.90
46319;DHT22;32042;50.916;2.926;2023-03-13T05:49:20;13.30;99.90
46319;DHT22;32042;50.916;2.926;2023-03-13T05:51:46;13.30;99.90
46319;DHT22;32042;50.916;2.926;2023-03-13T05:54:12;13.30;99.90
46319;DHT22;32042;50.916;2.926;2023-03-13T05:56:38;13.40;99.90
46319;DHT22;32042;50.916;2.926;2023-03-13T05:59:03;13.40;99.90
46319;DHT22;32042;50.916;2.926;2023-03-13T06:01:29;13.40;99.90
46319;DHT22;32042;50.916;2.926;2023-03-13T06:03:55;13.40;99.90
46319;DHT22;32042;50.916;2.926;2023-03-13T06:06:20;13.40;99.90
46319;DHT22;32042;50.916;2.926;2023-03-13T06:08:46;13.40;99.90
46319;DHT22;32042;50.916;2.926;2023-03-13T06:11:12;13.40;99.90
46319;DHT22;32042;50.916;2.926;2023-03-13T06:13:37;13.40;99.90
46319;DHT22;32042;50.916;2.926;2023-03-13T06:16:03;13.40;99.90
46319;DHT22;32042;50.916;2.926;2023-03-13T06:18:30;13.30;99.90
46319;DHT22;32042;50.916;2.926;2023-03-13T06:21:00;13.30;99.90
46319;DHT22;32042;50.916;2.926;2023-03-13T06:23:26;13.40;99.90
46319;DHT22;32042;50.916;2.926;2023-03-13T06:25:52;13.30;99.90
46319;DHT22;32042;50.916;2.926;2023-03-13T06:28:18;13.30;99.90
46319;DHT22;32042;50.916;2.926;2023-03-13T06:30:45;13.30;99.90
46319;DHT22;32042;50.916;2.926;2023-03-13T06:33:11;13.30;99.90
46319;DHT22;32042;50.916;2.926;2023-03-13T06:35:39;13.30;99.90
46319;DHT22;32042;50.916;2.926;2023-03-13T06:38:05;13.30;99.90
46319;DHT22;32042;50.916;2.926;2023-03-13T06:40:31;13.30;99.90
46319;DHT22;32042;50.916;2.926;2023-03-13T06:42:57;13.40;99.90
46319;DHT22;32042;50.916;2.926;2023-03-13T06:45:23;13.40;99.90
46319;DHT22;32042;50.916;2.926;2023-03-13T06:47:49;13.40;99.90
46319;DHT22;32042;50.916;2.926;2023-03-13T06:50:16;13.40;99.90
46319;DHT22;32042;50.916;2.926;2023-03-13T06:52:41;13.40;99.90
46319;DHT22;32042;50.916;2.926;2023-03-13T06:55:08;13.40;99.90
46319;DHT22;32042;50.916;2.926;2023-03-13T06:57:34;13.40;99.90
46319;DHT22;32042;50.916;2.926;2023-03-13T06:59:59;13.40;99.90
46319;DHT22;32042;50.916;2.926;2023-03-13T07:02:25;13.40;99.90
46319;DHT22;32042;50.916;2.926;2023-03-13T07:04:51;13.40;99.90
46319;DHT22;32042;50.916;2.926;2023-03-13T07:07:16;13.40;99.90
46319;DHT22;32042;50.916;2.926;2023-03-13T07:09:42;13.50;99.90
46319;DHT22;32042;50.916;2.926;2023-03-13T07:12:08;13.50;99.90
46319;DHT22;32042;50.916;2.926;2023-03-13T07:14:34;13.50;99.90
46319;DHT22;32042;50.916;2.926;2023-03-13T07:16:59;13.50;99.90
46319;DHT22;32042;50.916;2.926;2023-03-13T07:19:25;13.50;99.90
46319;DHT22;32042;50.916;2.926;2023-03-13T07:21:52;13.50;99.90
46319;DHT22;32042;50.916;2.926;2023-03-13T07:24:18;13.60;99.90
46319;DHT22;32042;50.916;2.926;2023-03-13T07:26:43;13.60;99.90
46319;DHT22;32042;50.916;2.926;2023-03-13T07:29:09;13.60;99.90
46319;DHT22;32042;50.916;2.926;2023-03-13T07:31:35;13.60;99.90
46319;DHT22;32042;50.916;2.926;2023-03-13T07:34:01;13.60;99.90
46319;DHT22;32042;50.916;2.926;2023-03-13T07:36:26;13.70;99.90
46319;DHT22;32042;50.916;2.926;2023-03-13T07:38:52;13.70;99.90
46319;DHT22;32042;50.916;2.926;2023-03-13T07:41:19;13.70;99.90
46319;DHT22;32042;50.916;2.926;2023-03-13T07:43:45;13.80;99.90
46319;DHT22;32042;50.916;2.926;2023-03-13T07:46:18;13.80;99.90
46319;DHT22;32042;50.916;2.926;2023-03-13T07:48:44;13.80;99.90
46319;DHT22;32042;50.916;2.926;2023-03-13T07:51:14;13.90;99.90
46319;DHT22;32042;50.916;2.926;2023-03-13T07:53:39;13.90;99.90
46319;DHT22;32042;50.916;2.926;2023-03-13T07:56:09;14.00;99.90
46319;DHT22;32042;50.916;2.926;2023-03-13T07:58:36;14.00;99.90
46319;DHT22;32042;50.916;2.926;2023-03-13T08:01:21;14.00;99.90
46319;DHT22;32042;50.916;2.926;2023-03-13T08:03:47;14.10;99.90
46319;DHT22;32042;50.916;2.926;2023-03-13T08:06:18;14.10;99.90
46319;DHT22;32042;50.916;2.926;2023-03-13T08:08:45;14.10;99.90
46319;DHT22;32042;50.916;2.926;2023-03-13T08:11:16;14.10;99.90
46319;DHT22;32042;50.916;2.926;2023-03-13T08:13:42;14.20;99.90
46319;DHT22;32042;50.916;2.926;2023-03-13T08:16:11;14.20;99.90
46319;DHT22;32042;50.916;2.926;2023-03-13T08:18:38;14.20;99.90
46319;DHT22;32042;50.916;2.926;2023-03-13T08:21:07;14.20;99.90
46319;DHT22;32042;50.916;2.926;2023-03-13T08:23:34;14.20;99.90
46319;DHT22;32042;50.916;2.926;2023-03-13T08:26:14;14.20;99.90
46319;DHT22;32042;50.916;2.926;2023-03-13T08:28:41;14.20;99.90
46319;DHT22;32042;50.916;2.926;2023-03-13T08:31:12;14.20;99.90
46319;DHT22;32042;50.916;2.926;2023-03-13T08:33:39;14.20;99.90
46319;DHT22;32042;50.916;2.926;2023-03-13T08:36:35;14.20;99.90
46319;DHT22;32042;50.916;2.926;2023-03-13T08:39:13;14.20;99.90
46319;DHT22;32042;50.916;2.926;2023-03-13T08:41:39;14.30;99.90
46319;DHT22;32042;50.916;2.926;2023-03-13T08:44:11;14.30;99.90
46319;DHT22;32042;50.916;2.926;2023-03-13T08:46:37;14.30;99.90
46319;DHT22;32042;50.916;2.926;2023-03-13T08:49:05;14.40;99.90
46319;DHT22;32042;50.916;2.926;2023-03-13T08:51:32;14.50;99.90
46319;DHT22;32042;50.916;2.926;2023-03-13T08:53:57;14.60;99.90
46319;DHT22;32042;50.916;2.926;2023-03-13T08:56:25;14.70;99.90
46319;DHT22;32042;50.916;2.926;2023-03-13T08:58:57;14.70;99.90
46319;DHT22;32042;50.916;2.926;2023-03-13T09:01:26;14.70;99.90
46319;DHT22;32042;50.916;2.926;2023-03-13T09:03:52;14.70;99.90
46319;DHT22;32042;50.916;2.926;2023-03-13T09:06:18;14.70;99.90
46319;DHT22;32042;50.916;2.926;2023-03-13T09:08:43;14.60;99.90
46319;DHT22;32042;50.916;2.926;2023-03-13T09:11:12;14.60;99.90
46319;DHT22;32042;50.916;2.926;2023-03-13T09:13:41;14.60;99.90
46319;DHT22;32042;50.916;2.926;2023-03-13T09:16:12;14.60;99.90
46319;DHT22;32042;50.916;2.926;2023-03-13T09:18:38;14.70;99.90
46319;DHT22;32042;50.916;2.926;2023-03-13T09:21:07;14.70;99.90
46319;DHT22;32042;50.916;2.926;2023-03-13T09:23:33;14.70;99.90
46319;DHT22;32042;50.916;2.926;2023-03-13T09:25:59;14.90;99.90
46319;DHT22;32042;50.916;2.926;2023-03-13T09:28:25;15.00;99.90
46319;DHT22;32042;50.916;2.926;2023-03-13T09:30:51;15.10;99.90
46319;DHT22;32042;50.916;2.926;2023-03-13T09:33:18;15.20;99.90
46319;DHT22;32042;50.916;2.926;2023-03-13T09:35:44;15.20;99.90
46319;DHT22;32042;50.916;2.926;2023-03-13T09:38:20;15.10;99.90
46319;DHT22;32042;50.916;2.926;2023-03-13T09:40:50;15.20;99.90
46319;DHT22;32042;50.916;2.926;2023-03-13T09:43:44;15.30;99.90
46319;DHT22;32042;50.916;2.926;2023-03-13T09:46:18;15.30;99.90
46319;DHT22;32042;50.916;2.926;2023-03-13T09:48:56;15.20;99.90
46319;DHT22;32042;50.916;2.926;2023-03-13T09:51:30;15.30;99.90
46319;DHT22;32042;50.916;2.926;2023-03-13T09:54:06;15.30;99.90
46319;DHT22;32042;50.916;2.926;2023-03-13T09:56:57;15.50;99.90
46319;DHT22;32042;50.916;2.926;2023-03-13T10:02:31;15.30;99.90
46319;DHT22;32042;50.916;2.926;2023-03-13T10:05:09;15.20;99.90
46319;DHT22;32042;50.916;2.926;2023-03-13T10:07:37;15.00;99.90
46319;DHT22;32042;50.916;2.926;2023-03-13T10:10:10;14.90;99.90
46319;DHT22;32042;50.916;2.926;2023-03-13T10:12:48;14.90;99.90
46319;DHT22;32042;50.916;2.926;2023-03-13T10:15:27;14.90;99.90
46319;DHT22;32042;50.916;2.926;2023-03-13T10:17:54;15.00;99.90
46319;DHT22;32042;50.916;2.926;2023-03-13T10:20:26;15.10;99.90
46319;DHT22;32042;50.916;2.926;2023-03-13T10:23:06;15.10;99.90
46319;DHT22;32042;50.916;2.926;2023-03-13T10:25:36;15.20;99.90
46319;DHT22;32042;50.916;2.926;2023-03-13T10:28:04;15.30;99.90
46319;DHT22;32042;50.916;2.926;2023-03-13T10:30:31;15.40;99.90
46319;DHT22;32042;50.916;2.926;2023-03-13T10:35:37;15.30;99.90
46319;DHT22;32042;50.916;2.926;2023-03-13T10:38:23;15.40;99.90
46319;DHT22;32042;50.916;2.926;2023-03-13T10:41:00;15.50;99.90
46319;DHT22;32042;50.916;2.926;2023-03-13T10:43:28;15.50;99.90
46319;DHT22;32042;50.916;2.926;2023-03-13T10:45:54;15.60;99.90
46319;DHT22;32042;50.916;2.926;2023-03-13T10:48:25;15.50;99.90
46319;DHT22;32042;50.916;2.926;2023-03-13T10:50:53;15.60;99.90
46319;DHT22;32042;50.916;2.926;2023-03-13T10:56:13;15.70;99.90
46319;DHT22;32042;50.916;2.926;2023-03-13T11:01:15;15.70;99.90
46319;DHT22;32042;50.916;2.926;2023-03-13T11:03:42;15.80;99.90
46319;DHT22;32042;50.916;2.926;2023-03-13T11:11:28;15.80;99.90
46319;DHT22;32042;50.916;2.926;2023-03-13T11:14:12;15.80;99.90
46319;DHT22;32042;50.916;2.926;2023-03-13T11:33:08;15.70;99.90
46319;DHT22;32042;50.916;2.926;2023-03-13T11:35:39;15.90;99.90
46319;DHT22;32042;50.916;2.926;2023-03-13T11:38:31;16.00;99.90
46319;DHT22;32042;50.916;2.926;2023-03-13T11:43:44;16.00;99.90
46319;DHT22;32042;50.916;2.926;2023-03-13T11:46:24;16.00;99.90
46319;DHT22;32042;50.916;2.926;2023-03-13T11:49:12;16.00;99.90
46319;DHT22;32042;50.916;2.926;2023-03-13T12:00:13;15.90;99.90
46319;DHT22;32042;50.916;2.926;2023-03-13T12:02:28;15.90;99.90
46319;DHT22;32042;50.916;2.926;2023-03-13T12:05:10;15.90;99.90
46319;DHT22;32042;50.916;2.926;2023-03-13T12:07:51;15.80;99.90
46319;DHT22;32042;50.916;2.926;2023-03-13T12:10:30;15.90;99.90
46319;DHT22;32042;50.916;2.926;2023-03-13T12:13:06;15.80;99.90
46319;DHT22;32042;50.916;2.926;2023-03-13T12:15:49;15.90;99.90
46319;DHT22;32042;50.916;2.926;2023-03-13T12:21:00;15.80;99.90
46319;DHT22;32042;50.916;2.926;2023-03-13T12:26:16;15.90;99.90
46319;DHT22;32042;50.916;2.926;2023-03-13T12:31:39;15.90;99.90
46319;DHT22;32042;50.916;2.926;2023-03-13T12:34:17;15.90;99.90
46319;DHT22;32042;50.916;2.926;2023-03-13T12:37:07;15.90;99.90
46319;DHT22;32042;50.916;2.926;2023-03-13T12:39:49;16.10;99.90
46319;DHT22;32042;50.916;2.926;2023-03-13T12:45:05;16.20;99.90
46319;DHT22;32042;50.916;2.926;2023-03-13T12:47:38;15.90;99.90
46319;DHT22;32042;50.916;2.926;2023-03-13T12:56:01;15.70;99.90
46319;DHT22;32042;50.916;2.926;2023-03-13T13:01:05;15.70;99.90
46319;DHT22;32042;50.916;2.926;2023-03-13T13:03:38;15.70;99.90
46319;DHT22;32042;50.916;2.926;2023-03-13T13:09:00;15.60;99.90
46319;DHT22;32042;50.916;2.926;2023-03-13T13:16:57;15.80;99.90
46319;DHT22;32042;50.916;2.926;2023-03-13T13:25:00;15.80;99.90
46319;DHT22;32042;50.916;2.926;2023-03-13T13:32:40;15.80;99.90
46319;DHT22;32042;50.916;2.926;2023-03-13T13:37:41;15.80;99.90
46319;DHT22;32042;50.916;2.926;2023-03-13T13:40:30;15.80;99.90
46319;DHT22;32042;50.916;2.926;2023-03-13T13:43:14;15.80;99.90
46319;DHT22;32042;50.916;2.926;2023-03-13T13:48:37;15.90;99.90
46319;DHT22;32042;50.916;2.926;2023-03-13T13:51:24;15.90;99.90
46319;DHT22;32042;50.916;2.926;2023-03-13T13:59:03;16.00;99.90
46319;DHT22;32042;50.916;2.926;2023-03-13T14:01:30;16.00;99.90
46319;DHT22;32042;50.916;2.926;2023-03-13T14:04:32;16.10;99.90
46319;DHT22;32042;50.916;2.926;2023-03-13T14:07:01;16.10;99.90
46319;DHT22;32042;50.916;2.926;2023-03-13T14:12:24;16.20;99.90
46319;DHT22;32042;50.916;2.926;2023-03-13T14:15:22;16.20;99.90
46319;DHT22;32042;50.916;2.926;2023-03-13T14:17:54;16.20;99.90
46319;DHT22;32042;50.916;2.926;2023-03-13T14:20:27;16.30;99.90
46319;DHT22;32042;50.916;2.926;2023-03-13T14:22:55;16.20;99.90
46319;DHT22;32042;50.916;2.926;2023-03-13T14:25:23;16.20;99.90
46319;DHT22;32042;50.916;2.926;2023-03-13T14:27:50;16.20;99.90
46319;DHT22;32042;50.916;2.926;2023-03-13T14:30:18;16.30;99.90
46319;DHT22;32042;50.916;2.926;2023-03-13T14:32:44;16.20;99.90
46319;DHT22;32042;50.916;2.926;2023-03-13T14:35:15;16.30;99.90
46319;DHT22;32042;50.916;2.926;2023-03-13T14:37:45;16.40;99.90
46319;DHT22;32042;50.916;2.926;2023-03-13T14:42:59;16.60;99.90
46319;DHT22;32042;50.916;2.926;2023-03-13T14:45:34;16.60;99.90
46319;DHT22;32042;50.916;2.926;2023-03-13T14:48:04;16.60;99.90
46319;DHT22;32042;50.916;2.926;2023-03-13T14:50:30;16.60;99.90
46319;DHT22;32042;50.916;2.926;2023-03-13T14:53:03;16.60;99.90
46319;DHT22;32042;50.916;2.926;2023-03-13T14:55:35;16.50;99.90
46319;DHT22;32042;50.916;2.926;2023-03-13T15:00:47;16.50;99.90
46319;DHT22;32042;50.916;2.926;2023-03-13T15:06:06;16.30;99.90
46319;DHT22;32042;50.916;2.926;2023-03-13T15:08:35;16.30;99.90
46319;DHT22;32042;50.916;2.926;2023-03-13T15:11:01;16.30;99.90
46319;DHT22;32042;50.916;2.926;2023-03-13T15:13:34;16.20;99.90
46319;DHT22;32042;50.916;2.926;2023-03-13T15:16:02;16.20;99.90
46319;DHT22;32042;50.916;2.926;2023-03-13T15:18:33;16.30;99.90
46319;DHT22;32042;50.916;2.926;2023-03-13T15:21:28;16.40;99.90
46319;DHT22;32042;50.916;2.926;2023-03-13T15:23:59;16.20;99.90
46319;DHT22;32042;50.916;2.926;2023-03-13T15:26:25;16.10;99.90
46319;DHT22;32042;50.916;2.926;2023-03-13T15:28:51;16.10;99.90
46319;DHT22;32042;50.916;2.926;2023-03-13T15:31:18;16.20;99.90
46319;DHT22;32042;50.916;2.926;2023-03-13T15:33:45;16.20;99.90
46319;DHT22;32042;50.916;2.926;2023-03-13T15:36:11;16.20;99.90
46319;DHT22;32042;50.916;2.926;2023-03-13T15:38:37;16.20;99.90
46319;DHT22;32042;50.916;2.926;2023-03-13T15:41:03;16.10;99.90
46319;DHT22;32042;50.916;2.926;2023-03-13T15:43:29;16.00;99.90
46319;DHT22;32042;50.916;2.926;2023-03-13T15:45:55;16.00;99.90
46319;DHT22;32042;50.916;2.926;2023-03-13T15:48:29;15.90;99.90
46319;DHT22;32042;50.916;2.926;2023-03-13T15:51:01;16.00;99.90
46319;DHT22;32042;50.916;2.926;2023-03-13T15:53:30;16.00;99.90
46319;DHT22;32042;50.916;2.926;2023-03-13T15:55:58;16.00;99.90
46319;DHT22;32042;50.916;2.926;2023-03-13T15:58:24;15.90;99.90
46319;DHT22;32042;50.916;2.926;2023-03-13T16:00:51;15.90;99.90
46319;DHT22;32042;50.916;2.926;2023-03-13T16:03:23;15.90;99.90
46319;DHT22;32042;50.916;2.926;2023-03-13T16:05:50;15.90;99.90
46319;DHT22;32042;50.916;2.926;2023-03-13T16:08:19;15.90;99.90
46319;DHT22;32042;50.916;2.926;2023-03-13T16:10:46;15.90;99.90
46319;DHT22;32042;50.916;2.926;2023-03-13T16:13:12;15.90;99.90
46319;DHT22;32042;50.916;2.926;2023-03-13T16:15:38;15.90;99.90
46319;DHT22;32042;50.916;2.926;2023-03-13T16:18:04;15.80;99.90
46319;DHT22;32042;50.916;2.926;2023-03-13T16:20:31;15.80;99.90
46319;DHT22;32042;50.916;2.926;2023-03-13T16:22:57;15.70;99.90
46319;DHT22;32042;50.916;2.926;2023-03-13T16:25:24;15.70;99.90
46319;DHT22;32042;50.916;2.926;2023-03-13T16:27:50;15.60;99.90
46319;DHT22;32042;50.916;2.926;2023-03-13T16:30:32;15.50;99.90
46319;DHT22;32042;50.916;2.926;2023-03-13T16:32:57;15.50;99.90
46319;DHT22;32042;50.916;2.926;2023-03-13T16:35:25;15.40;99.90
46319;DHT22;32042;50.916;2.926;2023-03-13T16:37:57;15.30;99.90
46319;DHT22;32042;50.916;2.926;2023-03-13T16:40:26;15.30;99.90
46319;DHT22;32042;50.916;2.926;2023-03-13T16:42:52;15.30;99.90
46319;DHT22;32042;50.916;2.926;2023-03-13T16:45:18;15.30;99.90
46319;DHT22;32042;50.916;2.926;2023-03-13T16:47:44;15.30;99.90
46319;DHT22;32042;50.916;2.926;2023-03-13T16:50:35;15.20;99.90
46319;DHT22;32042;50.916;2.926;2023-03-13T16:53:02;15.10;99.90
46319;DHT22;32042;50.916;2.926;2023-03-13T16:55:28;15.10;99.90
46319;DHT22;32042;50.916;2.926;2023-03-13T16:57:58;15.00;99.90
46319;DHT22;32042;50.916;2.926;2023-03-13T17:00:26;15.00;99.90
46319;DHT22;32042;50.916;2.926;2023-03-13T17:02:52;15.00;99.90
46319;DHT22;32042;50.916;2.926;2023-03-13T17:05:19;14.90;99.90
46319;DHT22;32042;50.916;2.926;2023-03-13T17:07:47;14.90;99.90
46319;DHT22;32042;50.916;2.926;2023-03-13T17:10:22;14.90;99.90
46319;DHT22;32042;50.916;2.926;2023-03-13T17:12:48;14.80;99.90
46319;DHT22;32042;50.916;2.926;2023-03-13T17:15:14;14.70;99.90
46319;DHT22;32042;50.916;2.926;2023-03-13T17:17:41;14.70;99.90
46319;DHT22;32042;50.916;2.926;2023-03-13T17:20:13;14.60;99.90
46319;DHT22;32042;50.916;2.926;2023-03-13T17:22:38;14.50;99.90
46319;DHT22;32042;50.916;2.926;2023-03-13T17:25:04;14.40;99.90
46319;DHT22;32042;50.916;2.926;2023-03-13T17:27:30;14.30;99.90
46319;DHT22;32042;50.916;2.926;2023-03-13T17:29:56;14.20;99.90
46319;DHT22;32042;50.916;2.926;2023-03-13T17:32:23;14.10;99.90
46319;DHT22;32042;50.916;2.926;2023-03-13T17:34:50;14.00;99.90